Aérodrome :







RETROUVEZ-NOUS SUR...

 
LOGIN :

S'inscrire | Disclaimer

   EN    FR    IT 

 









Légende :    VFR   VFR Marginal   IFR   IFR Intensif   IFR Très Intensif
Visi : 
Plafond : 
>= 8 km
>= 3000ft
5 à 8 km
1000 à 3000 ft
1500m à 5 km
500 à 1000 ft
800 à 1500m
200 à 500 ft
< 800m
< 200 ft
Symboles :   Orages  Brouillard  Fortes neiges  Fortes précipitations  Vent > 20 kt






- Altitude de l'aérodrome : 266 ft
- Code IATA : MHT


KMHT - Manchester

DERNIER METAR :
  • 151953Z 28011G21KT 10SM BKN055 07/M05 A2962 RMK AO2 PK WND 27030/1919 SLP045 T00671050

METARs EXPIRÉS :
  • 151853Z 25018G26KT 10SM BKN049 07/M04 A2958 RMK AO2 PK WND 29034/1811 SLP033 T00671044
  • 151753Z 27013G25KT 10SM BKN049 BKN060 07/M04 A2954 RMK AO2 PK WND 26027/1719 SLP019 T00721044 10078 20056 53015

TAF KMHT
Valide du 15 à 18h jusqu'au 16 à 18h UTC


151720Z 1518/1618 28014G24KT P6SM BKN060
TEMPO 1518/1521 SCT060
FM152100 27017G26KT P6SM FEW250
FM160400 28012G21KT P6SM SKC
FM160800 28009KT P6SM SKC



MET'MAP, la Météo Aéronautique d'un coup d'oeil ! - Copyright ORBIFLY Décembre 2007 - Disclaimer

ORBIFLY MET'MAP TEAM :

Programmation & Développement : Alexandra Zaïnal
Sur une idée originale de : Baudouin d'Aumeries
Assistance à la programmation : Marc-Olivier Méhu
Soutien technique & logistique : Manuel Goepfert

Contact : metmap@orbifly.com




SOURCES & CREDITS :

   NOAA